createdAt,value
2018-03-25T00:00:02.627Z,779.43
2018-03-25T00:00:06.513Z,779.44
2018-03-25T00:00:10.506Z,779.4
2018-03-25T00:00:14.716Z,779.44
2018-03-25T00:00:18.940Z,779.42
2018-03-25T00:00:23.046Z,779.46
2018-03-25T00:00:27.253Z,779.39
2018-03-25T00:00:31.137Z,779.42
2018-03-25T00:00:35.124Z,779.38
2018-03-25T00:00:39.268Z,779.37
2018-03-25T00:00:43.580Z,779.42
2018-03-25T00:00:47.782Z,779.41
2018-03-25T00:00:51.989Z,779.46
2018-03-25T00:00:55.978Z,779.39
2018-03-25T00:01:00.195Z,779.44
2018-03-25T00:01:04.353Z,779.45
2018-03-25T00:01:08.450Z,779.44
2018-03-25T00:01:12.557Z,779.41
2018-03-25T00:01:16.549Z,779.41
2018-03-25T00:01:20.536Z,779.44
2018-03-25T00:01:24.636Z,779.47
2018-03-25T00:01:28.632Z,779.47
2018-03-25T00:01:32.961Z,779.48
2018-03-25T00:01:37.284Z,779.46
2018-03-25T00:01:41.508Z,779.43
2018-03-25T00:01:45.611Z,779.46
2018-03-25T00:01:49.500Z,779.45
2018-03-25T00:01:53.709Z,779.44
2018-03-25T00:01:57.841Z,779.42
2018-03-25T00:02:01.992Z,779.46
2018-03-25T00:02:06.091Z,779.44
2018-03-25T00:02:10.300Z,779.44
2018-03-25T00:02:14.515Z,779.46
2018-03-25T00:02:18.734Z,779.42
2018-03-25T00:02:22.836Z,779.46
2018-03-25T00:02:26.944Z,779.44
2018-03-25T00:02:31.158Z,779.45
2018-03-25T00:02:35.269Z,779.44
2018-03-25T00:02:39.376Z,779.41
2018-03-25T00:02:43.583Z,779.45
2018-03-25T00:02:47.467Z,779.47
2018-03-25T00:02:51.566Z,779.43
2018-03-25T00:02:55.343Z,779.44
2018-03-25T00:02:59.442Z,779.45
2018-03-25T00:03:03.760Z,779.45
2018-03-25T00:03:07.983Z,779.44
2018-03-25T00:03:11.973Z,779.45
2018-03-25T00:03:16.189Z,779.44
2018-03-25T00:03:20.413Z,779.47
2018-03-25T00:03:24.618Z,779.44
2018-03-25T00:03:28.524Z,779.43
2018-03-25T00:03:32.726Z,779.43
2018-03-25T00:03:36.844Z,779.43
2018-03-25T00:03:40.836Z,779.44
2018-03-25T00:03:44.832Z,779.46
2018-03-25T00:03:48.826Z,779.43
2018-03-25T00:03:52.922Z,779.45
2018-03-25T00:03:56.589Z,779.43
2018-03-25T00:04:00.814Z,779.44
2018-03-25T00:04:04.809Z,779.45
2018-03-25T00:04:09.130Z,779.44
2018-03-25T00:04:13.232Z,779.45
2018-03-25T00:04:17.442Z,779.43
2018-03-25T00:04:21.665Z,779.39
2018-03-25T00:04:25.885Z,779.41
2018-03-25T00:04:29.882Z,779.44
2018-03-25T00:04:33.872Z,779.4
2018-03-25T00:04:37.872Z,779.41
2018-03-25T00:04:42.093Z,779.41
2018-03-25T00:04:46.203Z,779.42
2018-03-25T00:04:50.415Z,779.43
2018-03-25T00:04:54.522Z,779.41
2018-03-25T00:04:58.726Z,779.36
2018-03-25T00:05:02.726Z,779.34
2018-03-25T00:05:06.734Z,779.36
2018-03-25T00:05:10.732Z,779.4
2018-03-25T00:05:14.613Z,779.4
2018-03-25T00:05:18.608Z,779.39
2018-03-25T00:05:22.597Z,779.4
2018-03-25T00:05:26.693Z,779.39
2018-03-25T00:05:30.793Z,779.39
2018-03-25T00:05:35.000Z,779.37
2018-03-25T00:05:39.310Z,779.39
2018-03-25T00:05:43.634Z,779.37
2018-03-25T00:05:47.749Z,779.4
2018-03-25T00:05:52.060Z,779.42
2018-03-25T00:05:56.052Z,779.39
2018-03-25T00:06:00.150Z,779.41
2018-03-25T00:06:04.041Z,779.38
2018-03-25T00:06:08.075Z,779.38
2018-03-25T00:06:12.071Z,779.38
2018-03-25T00:06:16.173Z,779.42
2018-03-25T00:06:20.269Z,779.37
2018-03-25T00:06:24.481Z,779.35
2018-03-25T00:06:28.586Z,779.36
2018-03-25T00:06:32.572Z,779.35
2018-03-25T00:06:36.454Z,779.35
2018-03-25T00:06:40.553Z,779.37
2018-03-25T00:06:44.650Z,779.36
2018-03-25T00:06:48.752Z,779.37
2018-03-25T00:06:52.846Z,779.35
2018-03-25T00:06:56.944Z,779.32
2018-03-25T00:07:01.148Z,779.31
2018-03-25T00:07:05.271Z,779.33
2018-03-25T00:07:09.266Z,779.37
2018-03-25T00:07:13.367Z,779.34
2018-03-25T00:07:17.587Z,779.33
2018-03-25T00:07:21.577Z,779.32
2018-03-25T00:07:25.686Z,779.34
2018-03-25T00:07:29.675Z,779.3
2018-03-25T00:07:33.778Z,779.29
2018-03-25T00:07:37.560Z,779.31
2018-03-25T00:07:41.781Z,779.31
2018-03-25T00:07:45.672Z,779.32
2018-03-25T00:07:49.783Z,779.3
2018-03-25T00:07:54.131Z,779.34
2018-03-25T00:07:57.913Z,779.32
2018-03-25T00:08:02.431Z,779.31
2018-03-25T00:08:06.532Z,779.3
2018-03-25T00:08:10.632Z,779.3
2018-03-25T00:08:14.520Z,779.28
2018-03-25T00:08:18.734Z,779.28
2018-03-25T00:08:22.723Z,779.3
2018-03-25T00:08:26.825Z,779.27
2018-03-25T00:08:30.816Z,779.23
2018-03-25T00:08:35.030Z,779.2
2018-03-25T00:08:38.909Z,779.23
2018-03-25T00:08:43.012Z,779.22
2018-03-25T00:08:47.266Z,779.22
2018-03-25T00:08:51.262Z,779.25
2018-03-25T00:08:55.370Z,779.25
2018-03-25T00:08:59.476Z,779.23
2018-03-25T00:09:03.691Z,779.21
2018-03-25T00:09:07.688Z,779.2
2018-03-25T00:09:11.786Z,779.18
2018-03-25T00:09:15.995Z,779.2
2018-03-25T00:09:20.198Z,779.2
2018-03-25T00:09:24.186Z,779.21
2018-03-25T00:09:28.098Z,779.19
2018-03-25T00:09:32.209Z,779.21
2018-03-25T00:09:36.215Z,779.19
2018-03-25T00:09:40.209Z,779.17
2018-03-25T00:09:44.313Z,779.16
2018-03-25T00:09:48.528Z,779.2
2018-03-25T00:09:52.408Z,779.23
2018-03-25T00:09:56.298Z,779.21
2018-03-25T00:10:00.394Z,779.21
2018-03-25T00:10:04.929Z,779.18
2018-03-25T00:10:09.141Z,779.2
2018-03-25T00:10:13.351Z,779.18
2018-03-25T00:10:17.130Z,779.21
2018-03-25T00:10:21.465Z,779.17
2018-03-25T00:10:25.570Z,779.22
2018-03-25T00:10:29.456Z,779.21
2018-03-25T00:10:33.669Z,779.19
2018-03-25T00:10:37.666Z,779.18
2018-03-25T00:10:41.883Z,779.18
2018-03-25T00:10:45.984Z,779.21
2018-03-25T00:10:50.083Z,779.16
2018-03-25T00:10:54.308Z,779.19
2018-03-25T00:10:58.513Z,779.16
2018-03-25T00:11:02.618Z,779.14
2018-03-25T00:11:06.718Z,779.15
2018-03-25T00:11:10.935Z,779.17
2018-03-25T00:11:14.938Z,779.15
2018-03-25T00:11:18.941Z,779.16
2018-03-25T00:11:23.146Z,779.17
2018-03-25T00:11:27.287Z,779.17
2018-03-25T00:11:31.389Z,779.14
2018-03-25T00:11:35.698Z,779.15
2018-03-25T00:11:39.908Z,779.13
2018-03-25T00:11:43.793Z,779.07
2018-03-25T00:11:48.009Z,779.08
2018-03-25T00:11:52.215Z,779.14
2018-03-25T00:11:56.207Z,779.15
2018-03-25T00:12:00.095Z,779.13
2018-03-25T00:12:04.317Z,779.12
2018-03-25T00:12:08.534Z,779.13
2018-03-25T00:12:12.418Z,779.14
2018-03-25T00:12:16.627Z,779.14
2018-03-25T00:12:20.732Z,779.13
2018-03-25T00:12:24.849Z,779.11
2018-03-25T00:12:28.835Z,779.09
2018-03-25T00:12:32.944Z,779.11
2018-03-25T00:12:37.148Z,779.12
2018-03-25T00:12:41.351Z,779.1
2018-03-25T00:12:45.136Z,779.1
2018-03-25T00:12:49.126Z,779.12
2018-03-25T00:12:53.227Z,779.1
2018-03-25T00:12:57.108Z,779.08
2018-03-25T00:13:01.313Z,779.06
2018-03-25T00:13:05.432Z,779.08
2018-03-25T00:13:09.428Z,779.05
2018-03-25T00:13:13.416Z,779.06
2018-03-25T00:13:17.670Z,779.07
2018-03-25T00:13:22.319Z,779.07
2018-03-25T00:13:26.596Z,779.06
2018-03-25T00:13:30.699Z,779.05
2018-03-25T00:13:34.801Z,779.03
2018-03-25T00:13:38.679Z,779.06
2018-03-25T00:13:43.005Z,779.04
2018-03-25T00:13:47.014Z,779.08
2018-03-25T00:13:51.008Z,779.05
2018-03-25T00:13:55.106Z,779.05
2018-03-25T00:13:59.206Z,779.03
2018-03-25T00:14:03.193Z,778.99
2018-03-25T00:14:07.183Z,779.04
2018-03-25T00:14:11.177Z,779.03
2018-03-25T00:14:15.168Z,779.01
2018-03-25T00:14:19.176Z,779
2018-03-25T00:14:23.167Z,779.01
2018-03-25T00:14:27.054Z,779.04
2018-03-25T00:14:31.054Z,779.02
2018-03-25T00:14:35.162Z,778.99
2018-03-25T00:14:39.263Z,779.01
2018-03-25T00:14:43.279Z,778.99
2018-03-25T00:14:47.382Z,779.02
2018-03-25T00:14:51.498Z,779.02
2018-03-25T00:14:55.823Z,779.02
2018-03-25T00:14:59.829Z,778.98
2018-03-25T00:15:04.102Z,778.98
2018-03-25T00:15:08.340Z,778.99
2018-03-25T00:15:12.330Z,779.02
2018-03-25T00:15:16.649Z,778.99
2018-03-25T00:15:20.867Z,779.01
2018-03-25T00:15:24.867Z,779.01
2018-03-25T00:15:28.858Z,778.96
2018-03-25T00:15:32.755Z,779.01
2018-03-25T00:15:36.868Z,779.02
2018-03-25T00:15:41.197Z,778.99
2018-03-25T00:15:45.080Z,778.98
2018-03-25T00:15:48.969Z,778.98
2018-03-25T00:15:53.066Z,778.98
2018-03-25T00:15:57.177Z,778.98
2018-03-25T00:16:01.169Z,779.01
2018-03-25T00:16:05.045Z,778.94
2018-03-25T00:16:09.142Z,778.97
2018-03-25T00:16:13.241Z,778.97
2018-03-25T00:16:17.345Z,778.96
2018-03-25T00:16:21.680Z,779
2018-03-25T00:16:25.886Z,778.97
2018-03-25T00:16:30.214Z,778.94
2018-03-25T00:16:34.438Z,778.95
2018-03-25T00:16:38.647Z,778.96
2018-03-25T00:16:42.644Z,778.94
2018-03-25T00:16:46.741Z,778.95
2018-03-25T00:16:50.841Z,778.91
2018-03-25T00:16:54.831Z,778.91
2018-03-25T00:16:59.152Z,778.96
2018-03-25T00:17:03.155Z,778.92
2018-03-25T00:17:07.251Z,778.92
2018-03-25T00:17:11.350Z,778.93
2018-03-25T00:17:15.445Z,778.96
2018-03-25T00:17:19.754Z,778.92
2018-03-25T00:17:23.635Z,778.9
2018-03-25T00:17:27.627Z,778.88
2018-03-25T00:17:31.849Z,778.86
2018-03-25T00:17:35.947Z,778.85
2018-03-25T00:17:40.169Z,778.82
2018-03-25T00:17:44.266Z,778.82
2018-03-25T00:17:48.267Z,778.83
2018-03-25T00:17:52.475Z,778.81
2018-03-25T00:17:56.578Z,778.84
2018-03-25T00:18:00.676Z,778.85
2018-03-25T00:18:04.711Z,778.82
2018-03-25T00:18:08.817Z,778.8
2018-03-25T00:18:12.701Z,778.83
2018-03-25T00:18:16.798Z,778.82
2018-03-25T00:18:21.012Z,778.8
2018-03-25T00:18:25.120Z,778.86
2018-03-25T00:18:29.119Z,778.85
2018-03-25T00:18:33.325Z,778.87
2018-03-25T00:18:37.433Z,778.86
2018-03-25T00:18:41.444Z,778.81
2018-03-25T00:18:45.766Z,778.81
2018-03-25T00:18:49.760Z,778.82
2018-03-25T00:18:53.861Z,778.81
2018-03-25T00:18:57.849Z,778.79
2018-03-25T00:19:02.122Z,778.79
2018-03-25T00:19:06.336Z,778.83
2018-03-25T00:19:10.327Z,778.81
2018-03-25T00:19:14.423Z,778.8
2018-03-25T00:19:18.539Z,778.81
2018-03-25T00:19:22.752Z,778.8
2018-03-25T00:19:26.682Z,778.8
2018-03-25T00:19:30.678Z,778.78
2018-03-25T00:19:34.932Z,778.79
2018-03-25T00:19:39.039Z,778.79
2018-03-25T00:19:43.164Z,778.75
2018-03-25T00:19:47.272Z,778.81
2018-03-25T00:19:51.374Z,778.77
2018-03-25T00:19:55.420Z,778.79
2018-03-25T00:19:59.408Z,778.75
2018-03-25T00:20:03.765Z,778.75
2018-03-25T00:20:07.761Z,778.75
2018-03-25T00:20:11.982Z,778.73
2018-03-25T00:20:15.969Z,778.72
2018-03-25T00:20:19.962Z,778.75
2018-03-25T00:20:24.167Z,778.72
2018-03-25T00:20:28.266Z,778.75
2018-03-25T00:20:32.371Z,778.74
2018-03-25T00:20:36.578Z,778.76
2018-03-25T00:20:40.798Z,778.77
2018-03-25T00:20:45.001Z,778.75
2018-03-25T00:20:49.327Z,778.72
2018-03-25T00:20:53.584Z,778.7
2018-03-25T00:20:57.802Z,778.71
2018-03-25T00:21:02.113Z,778.73
2018-03-25T00:21:06.326Z,778.71
2018-03-25T00:21:10.435Z,778.73
2018-03-25T00:21:14.649Z,778.66
2018-03-25T00:21:18.748Z,778.71
2018-03-25T00:21:22.739Z,778.73
2018-03-25T00:21:26.748Z,778.73
2018-03-25T00:21:30.747Z,778.72
2018-03-25T00:21:34.959Z,778.71
2018-03-25T00:21:39.328Z,778.71
2018-03-25T00:21:43.429Z,778.69
2018-03-25T00:21:47.639Z,778.66
2018-03-25T00:21:51.739Z,778.71
2018-03-25T00:21:55.841Z,778.72
2018-03-25T00:22:00.048Z,778.71
2018-03-25T00:22:04.155Z,778.7
2018-03-25T00:22:07.935Z,778.7
2018-03-25T00:22:12.037Z,778.71
2018-03-25T00:22:16.148Z,778.71
2018-03-25T00:22:20.258Z,778.69
2018-03-25T00:22:24.249Z,778.68
2018-03-25T00:22:28.138Z,778.7
2018-03-25T00:22:32.352Z,778.7
2018-03-25T00:22:36.456Z,778.65
2018-03-25T00:22:40.559Z,778.69
2018-03-25T00:22:44.551Z,778.66
2018-03-25T00:22:48.541Z,778.66
2018-03-25T00:22:52.532Z,778.68
2018-03-25T00:22:56.529Z,778.68
2018-03-25T00:23:00.519Z,778.68
2018-03-25T00:23:04.619Z,778.68
2018-03-25T00:23:08.821Z,778.65
2018-03-25T00:23:13.046Z,778.66
2018-03-25T00:23:17.258Z,778.7
2018-03-25T00:23:21.258Z,778.69
2018-03-25T00:23:25.251Z,778.67
2018-03-25T00:23:29.352Z,778.66
2018-03-25T00:23:33.564Z,778.67
2018-03-25T00:23:37.672Z,778.66
2018-03-25T00:23:41.882Z,778.68
2018-03-25T00:23:45.878Z,778.64
2018-03-25T00:23:50.084Z,778.68
2018-03-25T00:23:53.967Z,778.65
2018-03-25T00:23:57.961Z,778.69
2018-03-25T00:24:02.060Z,778.67
2018-03-25T00:24:06.050Z,778.68
2018-03-25T00:24:10.159Z,778.67
2018-03-25T00:24:14.368Z,778.65
2018-03-25T00:24:18.637Z,778.65
2018-03-25T00:24:22.628Z,778.64
2018-03-25T00:24:26.656Z,778.62
2018-03-25T00:24:30.764Z,778.63
2018-03-25T00:24:34.861Z,778.66
2018-03-25T00:24:38.854Z,778.61
2018-03-25T00:24:43.061Z,778.63
2018-03-25T00:24:47.271Z,778.59
2018-03-25T00:24:51.591Z,778.63
2018-03-25T00:24:55.581Z,778.6
2018-03-25T00:24:59.677Z,778.6
2018-03-25T00:25:03.838Z,778.6
2018-03-25T00:25:07.946Z,778.61
2018-03-25T00:25:11.939Z,778.61
2018-03-25T00:25:16.040Z,778.64
2018-03-25T00:25:20.039Z,778.63
2018-03-25T00:25:24.379Z,778.59
2018-03-25T00:25:28.587Z,778.62
2018-03-25T00:25:32.901Z,778.58
2018-03-25T00:25:36.999Z,778.63
2018-03-25T00:25:40.986Z,778.61
2018-03-25T00:25:45.094Z,778.57
2018-03-25T00:25:49.306Z,778.59
2018-03-25T00:25:53.296Z,778.58
2018-03-25T00:25:57.423Z,778.6
2018-03-25T00:26:01.524Z,778.58
2018-03-25T00:26:05.566Z,778.57
2018-03-25T00:26:09.559Z,778.59
2018-03-25T00:26:13.546Z,778.57
2018-03-25T00:26:17.755Z,778.57
2018-03-25T00:26:21.853Z,778.57
2018-03-25T00:26:26.068Z,778.56
2018-03-25T00:26:30.063Z,778.55
2018-03-25T00:26:34.162Z,778.56
2018-03-25T00:26:38.379Z,778.55
2018-03-25T00:26:42.377Z,778.56
2018-03-25T00:26:46.475Z,778.58
2018-03-25T00:26:50.680Z,778.54
2018-03-25T00:26:54.885Z,778.57
2018-03-25T00:26:59.205Z,778.57
2018-03-25T00:27:03.305Z,778.57
2018-03-25T00:27:07.421Z,778.55
2018-03-25T00:27:11.632Z,778.58
2018-03-25T00:27:15.731Z,778.5
2018-03-25T00:27:19.726Z,778.52
2018-03-25T00:27:23.822Z,778.58
2018-03-25T00:27:28.026Z,778.54
2018-03-25T00:27:31.808Z,778.59
2018-03-25T00:27:35.802Z,778.58
2018-03-25T00:27:40.059Z,778.55
2018-03-25T00:27:44.644Z,778.58
2018-03-25T00:27:48.938Z,778.56
2018-03-25T00:27:53.034Z,778.58
2018-03-25T00:27:57.024Z,778.56
2018-03-25T00:28:01.140Z,778.59
2018-03-25T00:28:05.445Z,778.59
2018-03-25T00:28:09.440Z,778.59
2018-03-25T00:28:13.428Z,778.57
2018-03-25T00:28:17.205Z,778.6
2018-03-25T00:28:21.196Z,778.56
2018-03-25T00:28:25.335Z,778.55
2018-03-25T00:28:29.538Z,778.55
2018-03-25T00:28:33.744Z,778.55
2018-03-25T00:28:37.968Z,778.55
2018-03-25T00:28:41.850Z,778.57
2018-03-25T00:28:45.838Z,778.56
2018-03-25T00:28:49.994Z,778.55
2018-03-25T00:28:54.100Z,778.54
2018-03-25T00:28:58.194Z,778.54
2018-03-25T00:29:02.553Z,778.56
2018-03-25T00:29:06.759Z,778.57
2018-03-25T00:29:10.879Z,778.57
2018-03-25T00:29:15.195Z,778.57
2018-03-25T00:29:19.084Z,778.61
2018-03-25T00:29:23.458Z,778.56
2018-03-25T00:29:27.450Z,778.58
2018-03-25T00:29:31.555Z,778.6
2018-03-25T00:29:35.776Z,778.61
2018-03-25T00:29:39.876Z,778.61
2018-03-25T00:29:44.085Z,778.59
2018-03-25T00:29:48.083Z,778.61
2018-03-25T00:29:52.191Z,778.61
2018-03-25T00:29:56.445Z,778.61
2018-03-25T00:30:00.559Z,778.63
2018-03-25T00:30:04.662Z,778.59
2018-03-25T00:30:08.868Z,778.65
2018-03-25T00:30:12.973Z,778.63
2018-03-25T00:30:17.183Z,778.63
2018-03-25T00:30:21.394Z,778.63
2018-03-25T00:30:25.497Z,778.62
2018-03-25T00:30:29.703Z,778.68
2018-03-25T00:30:33.911Z,778.64
2018-03-25T00:30:37.906Z,778.67
2018-03-25T00:30:42.012Z,778.68
2018-03-25T00:30:45.998Z,778.66
2018-03-25T00:30:49.892Z,778.67
2018-03-25T00:30:54.100Z,778.65
2018-03-25T00:30:58.314Z,778.66
2018-03-25T00:31:02.416Z,778.64
2018-03-25T00:31:06.410Z,778.69
2018-03-25T00:31:10.730Z,778.67
2018-03-25T00:31:14.613Z,778.69
2018-03-25T00:31:18.931Z,778.71
2018-03-25T00:31:23.247Z,778.69
2018-03-25T00:31:27.472Z,778.7
2018-03-25T00:31:31.579Z,778.69
2018-03-25T00:31:35.675Z,778.73
2018-03-25T00:31:39.666Z,778.72
2018-03-25T00:31:43.777Z,778.67
2018-03-25T00:31:47.982Z,778.68
2018-03-25T00:31:52.199Z,778.67
2018-03-25T00:31:56.184Z,778.72
2018-03-25T00:32:00.291Z,778.66
2018-03-25T00:32:04.694Z,778.68
2018-03-25T00:32:08.576Z,778.74
2018-03-25T00:32:12.572Z,778.74
2018-03-25T00:32:16.788Z,778.74
2018-03-25T00:32:20.892Z,778.72
2018-03-25T00:32:25.097Z,778.74
2018-03-25T00:32:29.200Z,778.78
2018-03-25T00:32:33.414Z,778.73
2018-03-25T00:32:37.635Z,778.8
2018-03-25T00:32:41.854Z,778.79
2018-03-25T00:32:45.843Z,778.76
2018-03-25T00:32:49.942Z,778.76
2018-03-25T00:32:54.041Z,778.75
2018-03-25T00:32:57.925Z,778.79
2018-03-25T00:33:01.911Z,778.76
2018-03-25T00:33:05.803Z,778.76
2018-03-25T00:33:09.793Z,778.75
2018-03-25T00:33:13.861Z,778.76
2018-03-25T00:33:18.244Z,778.76
2018-03-25T00:33:22.721Z,778.78
2018-03-25T00:33:26.818Z,778.77
2018-03-25T00:33:31.026Z,778.75
2018-03-25T00:33:35.132Z,778.77
2018-03-25T00:33:39.339Z,778.76
2018-03-25T00:33:43.330Z,778.76
2018-03-25T00:33:47.222Z,778.75
2018-03-25T00:33:51.543Z,778.78
2018-03-25T00:33:55.651Z,778.77
2018-03-25T00:33:59.762Z,778.77
2018-03-25T00:34:03.865Z,778.76
2018-03-25T00:34:07.966Z,778.78
2018-03-25T00:34:11.848Z,778.78
2018-03-25T00:34:15.950Z,778.78
2018-03-25T00:34:20.156Z,778.76
2018-03-25T00:34:24.258Z,778.73
2018-03-25T00:34:28.034Z,778.76
2018-03-25T00:34:32.239Z,778.76
2018-03-25T00:34:36.352Z,778.78
2018-03-25T00:34:40.554Z,778.76
2018-03-25T00:34:44.436Z,778.81
2018-03-25T00:34:48.642Z,778.79
2018-03-25T00:34:52.955Z,778.76
2018-03-25T00:34:57.171Z,778.81
2018-03-25T00:35:01.263Z,778.76
2018-03-25T00:35:05.039Z,778.77
2018-03-25T00:35:09.248Z,778.74
2018-03-25T00:35:13.380Z,778.75
2018-03-25T00:35:17.477Z,778.77
2018-03-25T00:35:21.803Z,778.74
2018-03-25T00:35:25.910Z,778.79
2018-03-25T00:35:29.899Z,778.78
2018-03-25T00:35:34.213Z,778.74
2018-03-25T00:35:38.206Z,778.75
2018-03-25T00:35:42.412Z,778.77
2018-03-25T00:35:46.296Z,778.76
2018-03-25T00:35:50.399Z,778.75
2018-03-25T00:35:54.394Z,778.75
2018-03-25T00:35:58.491Z,778.74
2018-03-25T00:36:02.425Z,778.76
2018-03-25T00:36:06.314Z,778.72
2018-03-25T00:36:10.529Z,778.74
2018-03-25T00:36:14.627Z,778.75
2018-03-25T00:36:18.728Z,778.77
2018-03-25T00:36:22.826Z,778.77
2018-03-25T00:36:27.035Z,778.74
2018-03-25T00:36:31.240Z,778.75
2018-03-25T00:36:35.343Z,778.7
2018-03-25T00:36:39.446Z,778.7
2018-03-25T00:36:43.544Z,778.66
2018-03-25T00:36:47.546Z,778.71
2018-03-25T00:36:51.646Z,778.72
2018-03-25T00:36:55.640Z,778.7
2018-03-25T00:36:59.852Z,778.7
2018-03-25T00:37:03.739Z,778.68
2018-03-25T00:37:08.052Z,778.69
2018-03-25T00:37:12.256Z,778.75
2018-03-25T00:37:16.472Z,778.71
2018-03-25T00:37:20.513Z,778.74
2018-03-25T00:37:24.626Z,778.73
2018-03-25T00:37:28.940Z,778.72
2018-03-25T00:37:33.147Z,778.72
2018-03-25T00:37:37.249Z,778.74
2018-03-25T00:37:41.450Z,778.71
2018-03-25T00:37:45.554Z,778.7
2018-03-25T00:37:49.759Z,778.7
2018-03-25T00:37:53.971Z,778.68
2018-03-25T00:37:57.855Z,778.69
2018-03-25T00:38:01.952Z,778.69
2018-03-25T00:38:06.166Z,778.66
2018-03-25T00:38:10.160Z,778.66
2018-03-25T00:38:14.264Z,778.63
2018-03-25T00:38:18.366Z,778.66
2018-03-25T00:38:22.355Z,778.66
2018-03-25T00:38:26.303Z,778.66
2018-03-25T00:38:30.079Z,778.64
2018-03-25T00:38:34.069Z,778.65
2018-03-25T00:38:38.276Z,778.66
2018-03-25T00:38:42.536Z,778.66
2018-03-25T00:38:46.636Z,778.64
2018-03-25T00:38:50.624Z,778.63
2018-03-25T00:38:54.832Z,778.64
2018-03-25T00:38:58.822Z,778.64
2018-03-25T00:39:02.703Z,778.64
2018-03-25T00:39:06.698Z,778.61
2018-03-25T00:39:10.802Z,778.64
2018-03-25T00:39:15.012Z,778.62
2018-03-25T00:39:19.229Z,778.63
2018-03-25T00:39:23.112Z,778.62
2018-03-25T00:39:27.222Z,778.53
2018-03-25T00:39:31.435Z,778.55
2018-03-25T00:39:35.540Z,778.51
2018-03-25T00:39:39.746Z,778.53
2018-03-25T00:39:43.754Z,778.55
2018-03-25T00:39:47.758Z,778.58
2018-03-25T00:39:51.862Z,778.55
2018-03-25T00:39:55.909Z,778.55
2018-03-25T00:40:00.025Z,778.54
2018-03-25T00:40:04.021Z,778.57
2018-03-25T00:40:08.119Z,778.55
2018-03-25T00:40:12.002Z,778.59
2018-03-25T00:40:15.886Z,778.55
2018-03-25T00:40:19.934Z,778.54
2018-03-25T00:40:24.036Z,778.54
2018-03-25T00:40:28.144Z,778.56
2018-03-25T00:40:32.349Z,778.49
2018-03-25T00:40:36.564Z,778.5
2018-03-25T00:40:40.775Z,778.53
2018-03-25T00:40:44.991Z,778.51
2018-03-25T00:40:48.994Z,778.48
2018-03-25T00:40:52.994Z,778.5
2018-03-25T00:40:57.204Z,778.48
2018-03-25T00:41:01.304Z,778.5
2018-03-25T00:41:05.239Z,778.47
2018-03-25T00:41:09.247Z,778.48
2018-03-25T00:41:13.351Z,778.48
2018-03-25T00:41:17.604Z,778.47
2018-03-25T00:41:21.928Z,778.46
2018-03-25T00:41:25.802Z,778.45
2018-03-25T00:41:30.020Z,778.45
2018-03-25T00:41:33.901Z,778.43
2018-03-25T00:41:37.895Z,778.42
2018-03-25T00:41:42.110Z,778.43
2018-03-25T00:41:46.316Z,778.43
2018-03-25T00:41:50.414Z,778.43
2018-03-25T00:41:54.631Z,778.4
2018-03-25T00:41:58.726Z,778.43
2018-03-25T00:42:03.037Z,778.44
2018-03-25T00:42:06.922Z,778.39
2018-03-25T00:42:11.026Z,778.4
2018-03-25T00:42:15.133Z,778.39
2018-03-25T00:42:19.506Z,778.41
2018-03-25T00:42:24.084Z,778.37
2018-03-25T00:42:28.537Z,778.37
2018-03-25T00:42:32.755Z,778.37
2018-03-25T00:42:36.850Z,778.37
2018-03-25T00:42:41.070Z,778.39
2018-03-25T00:42:45.057Z,778.36
2018-03-25T00:42:49.277Z,778.35
2018-03-25T00:42:53.266Z,778.35
2018-03-25T00:42:57.469Z,778.34
2018-03-25T00:43:01.816Z,778.37
2018-03-25T00:43:06.142Z,778.35
2018-03-25T00:43:10.473Z,778.38
2018-03-25T00:43:14.362Z,778.36
2018-03-25T00:43:18.376Z,778.33
2018-03-25T00:43:22.479Z,778.35
2018-03-25T00:43:26.690Z,778.35
2018-03-25T00:43:30.895Z,778.33
2018-03-25T00:43:34.995Z,778.35
2018-03-25T00:43:38.985Z,778.33
2018-03-25T00:43:43.300Z,778.31
2018-03-25T00:43:47.290Z,778.33
2018-03-25T00:43:51.176Z,778.34
2018-03-25T00:43:55.169Z,778.33
2018-03-25T00:43:59.173Z,778.32
2018-03-25T00:44:03.269Z,778.32
2018-03-25T00:44:07.372Z,778.31
2018-03-25T00:44:11.581Z,778.31
2018-03-25T00:44:15.684Z,778.33
2018-03-25T00:44:20.002Z,778.3
2018-03-25T00:44:24.160Z,778.3
2018-03-25T00:44:27.937Z,778.24
2018-03-25T00:44:32.037Z,778.29
2018-03-25T00:44:36.133Z,778.3
2018-03-25T00:44:40.241Z,778.29
2018-03-25T00:44:44.230Z,778.27
2018-03-25T00:44:48.002Z,778.26
2018-03-25T00:44:52.104Z,778.23
2018-03-25T00:44:56.095Z,778.25
2018-03-25T00:45:00.298Z,778.25
2018-03-25T00:45:04.448Z,778.23
2018-03-25T00:45:08.433Z,778.25
2018-03-25T00:45:12.644Z,778.24
2018-03-25T00:45:16.869Z,778.22
2018-03-25T00:45:20.983Z,778.24
2018-03-25T00:45:24.757Z,778.22
2018-03-25T00:45:28.854Z,778.2
2018-03-25T00:45:32.743Z,778.23
2018-03-25T00:45:36.840Z,778.2
2018-03-25T00:45:40.822Z,778.23
2018-03-25T00:45:45.040Z,778.18
2018-03-25T00:45:49.134Z,778.2
2018-03-25T00:45:53.230Z,778.22
2018-03-25T00:45:57.113Z,778.17
2018-03-25T00:46:01.109Z,778.16
2018-03-25T00:46:05.092Z,778.19
2018-03-25T00:46:08.988Z,778.19
2018-03-25T00:46:13.198Z,778.18
2018-03-25T00:46:17.401Z,778.15
2018-03-25T00:46:21.285Z,778.19
2018-03-25T00:46:25.493Z,778.16
2018-03-25T00:46:29.709Z,778.18
2018-03-25T00:46:33.806Z,778.16
2018-03-25T00:46:37.948Z,778.15
2018-03-25T00:46:42.257Z,778.15
2018-03-25T00:46:46.259Z,778.16
2018-03-25T00:46:50.567Z,778.12
2018-03-25T00:46:54.563Z,778.15
2018-03-25T00:46:58.447Z,778.13
2018-03-25T00:47:02.439Z,778.13
2018-03-25T00:47:06.331Z,778.09
2018-03-25T00:47:10.533Z,778.14
2018-03-25T00:47:14.629Z,778.1
2018-03-25T00:47:18.728Z,778.09
2018-03-25T00:47:22.823Z,778.12
2018-03-25T00:47:27.031Z,778.12
2018-03-25T00:47:31.246Z,778.08
2018-03-25T00:47:35.244Z,778.09
2018-03-25T00:47:39.246Z,778.09
2018-03-25T00:47:43.562Z,778.12
2018-03-25T00:47:47.883Z,778.11
2018-03-25T00:47:52.199Z,778.09
2018-03-25T00:47:56.406Z,778.1
2018-03-25T00:48:00.399Z,778.11
2018-03-25T00:48:04.549Z,778.08
2018-03-25T00:48:08.648Z,778.09
2018-03-25T00:48:12.984Z,778.07
2018-03-25T00:48:17.192Z,778.08
2018-03-25T00:48:21.507Z,778.08
2018-03-25T00:48:25.721Z,778.04
2018-03-25T00:48:29.986Z,778.06
2018-03-25T00:48:33.874Z,778.04
2018-03-25T00:48:37.865Z,778
2018-03-25T00:48:42.017Z,778.05
2018-03-25T00:48:45.903Z,778.07
2018-03-25T00:48:49.915Z,778.07
2018-03-25T00:48:53.922Z,778.07
2018-03-25T00:48:57.811Z,778.07
2018-03-25T00:49:02.244Z,778.07
2018-03-25T00:49:06.246Z,778.07
2018-03-25T00:49:10.246Z,778.02
2018-03-25T00:49:14.448Z,778.05
2018-03-25T00:49:18.450Z,778.05
2018-03-25T00:49:22.549Z,778.03
2018-03-25T00:49:26.650Z,778.06
2018-03-25T00:49:30.867Z,778.01
2018-03-25T00:49:34.974Z,778.04
2018-03-25T00:49:39.076Z,778.06
2018-03-25T00:49:43.068Z,778.01
2018-03-25T00:49:47.167Z,778.04
2018-03-25T00:49:51.155Z,778.04
2018-03-25T00:49:55.366Z,778.03
2018-03-25T00:49:59.465Z,778.02
2018-03-25T00:50:03.803Z,778
2018-03-25T00:50:07.901Z,778.02
2018-03-25T00:50:11.892Z,778.05
2018-03-25T00:50:15.882Z,778.02
2018-03-25T00:50:20.085Z,778.04
2018-03-25T00:50:24.295Z,778.02
2018-03-25T00:50:28.287Z,778.02
2018-03-25T00:50:32.615Z,777.99
2018-03-25T00:50:36.730Z,778
2018-03-25T00:50:40.948Z,778.01
2018-03-25T00:50:45.047Z,777.99
2018-03-25T00:50:49.259Z,778.02
2018-03-25T00:50:53.473Z,777.99
2018-03-25T00:50:57.678Z,778
2018-03-25T00:51:01.675Z,778.01
2018-03-25T00:51:05.782Z,777.98
2018-03-25T00:51:09.663Z,778
2018-03-25T00:51:13.655Z,777.96
2018-03-25T00:51:17.561Z,777.97
2018-03-25T00:51:21.557Z,777.97
2018-03-25T00:51:25.775Z,777.97